sensor_id;sensor_type;location;lat;lon;timestamp;temperature;humidity
46590;DHT22;32313;48.722;9.362;2022-08-03T00:01:42;15.60;99.90
46590;DHT22;32313;48.722;9.362;2022-08-03T00:04:09;15.60;99.90
46590;DHT22;32313;48.722;9.362;2022-08-03T00:06:36;15.60;99.90
46590;DHT22;32313;48.722;9.362;2022-08-03T00:09:02;15.60;99.90
46590;DHT22;32313;48.722;9.362;2022-08-03T00:11:28;15.60;99.90
46590;DHT22;32313;48.722;9.362;2022-08-03T00:13:54;15.70;99.90
46590;DHT22;32313;48.722;9.362;2022-08-03T00:16:19;15.60;99.90
46590;DHT22;32313;48.722;9.362;2022-08-03T00:18:45;15.60;99.90
46590;DHT22;32313;48.722;9.362;2022-08-03T00:21:12;15.50;99.90
46590;DHT22;32313;48.722;9.362;2022-08-03T00:23:38;15.50;99.90
46590;DHT22;32313;48.722;9.362;2022-08-03T00:26:03;15.60;99.90
46590;DHT22;32313;48.722;9.362;2022-08-03T00:28:29;15.60;99.90
46590;DHT22;32313;48.722;9.362;2022-08-03T00:30:55;15.60;99.90
46590;DHT22;32313;48.722;9.362;2022-08-03T00:33:21;15.60;99.90
46590;DHT22;32313;48.722;9.362;2022-08-03T00:35:47;15.60;99.90
46590;DHT22;32313;48.722;9.362;2022-08-03T00:38:14;15.60;99.90
46590;DHT22;32313;48.722;9.362;2022-08-03T00:40:40;15.50;99.90
46590;DHT22;32313;48.722;9.362;2022-08-03T00:43:07;15.50;99.90
46590;DHT22;32313;48.722;9.362;2022-08-03T00:45:42;15.40;99.90
46590;DHT22;32313;48.722;9.362;2022-08-03T00:48:10;15.40;99.90
46590;DHT22;32313;48.722;9.362;2022-08-03T00:50:41;15.40;99.90
46590;DHT22;32313;48.722;9.362;2022-08-03T00:53:10;15.30;99.90
46590;DHT22;32313;48.722;9.362;2022-08-03T00:55:37;15.20;99.90
46590;DHT22;32313;48.722;9.362;2022-08-03T00:58:03;15.20;99.90
46590;DHT22;32313;48.722;9.362;2022-08-03T01:00:32;15.20;99.90
46590;DHT22;32313;48.722;9.362;2022-08-03T01:03:00;15.20;99.90
46590;DHT22;32313;48.722;9.362;2022-08-03T01:05:29;15.10;99.90
46590;DHT22;32313;48.722;9.362;2022-08-03T01:08:02;15.20;99.90
46590;DHT22;32313;48.722;9.362;2022-08-03T01:10:38;15.10;99.90
46590;DHT22;32313;48.722;9.362;2022-08-03T01:18:44;15.10;99.90
46590;DHT22;32313;48.722;9.362;2022-08-03T01:21:15;15.10;99.90
46590;DHT22;32313;48.722;9.362;2022-08-03T01:24:17;15.10;99.90
46590;DHT22;32313;48.722;9.362;2022-08-03T01:26:58;15.10;99.90
46590;DHT22;32313;48.722;9.362;2022-08-03T01:32:24;15.20;99.90
46590;DHT22;32313;48.722;9.362;2022-08-03T01:34:57;15.20;99.90
46590;DHT22;32313;48.722;9.362;2022-08-03T01:37:50;15.10;99.90
46590;DHT22;32313;48.722;9.362;2022-08-03T01:40:16;15.10;99.90
46590;DHT22;32313;48.722;9.362;2022-08-03T01:42:45;15.00;99.90
46590;DHT22;32313;48.722;9.362;2022-08-03T01:45:15;14.90;99.90
46590;DHT22;32313;48.722;9.362;2022-08-03T01:47:44;14.90;99.90
46590;DHT22;32313;48.722;9.362;2022-08-03T01:50:12;14.90;99.90
46590;DHT22;32313;48.722;9.362;2022-08-03T01:52:43;14.90;99.90
46590;DHT22;32313;48.722;9.362;2022-08-03T01:55:11;14.90;99.90
46590;DHT22;32313;48.722;9.362;2022-08-03T01:57:39;14.90;99.90
46590;DHT22;32313;48.722;9.362;2022-08-03T02:00:06;14.80;99.90
46590;DHT22;32313;48.722;9.362;2022-08-03T02:02:38;14.80;99.90
46590;DHT22;32313;48.722;9.362;2022-08-03T02:05:06;14.90;99.90
46590;DHT22;32313;48.722;9.362;2022-08-03T02:07:34;14.90;99.90
46590;DHT22;32313;48.722;9.362;2022-08-03T02:10:03;14.90;99.90
46590;DHT22;32313;48.722;9.362;2022-08-03T02:12:37;14.80;99.90
46590;DHT22;32313;48.722;9.362;2022-08-03T02:15:04;14.80;99.90
46590;DHT22;32313;48.722;9.362;2022-08-03T02:17:33;14.70;99.90
46590;DHT22;32313;48.722;9.362;2022-08-03T02:20:02;14.70;99.90
46590;DHT22;32313;48.722;9.362;2022-08-03T02:22:28;14.70;99.90
46590;DHT22;32313;48.722;9.362;2022-08-03T02:24:55;14.70;99.90
46590;DHT22;32313;48.722;9.362;2022-08-03T02:27:25;14.70;99.90
46590;DHT22;32313;48.722;9.362;2022-08-03T02:30:02;14.70;99.90
46590;DHT22;32313;48.722;9.362;2022-08-03T02:32:34;14.60;99.90
46590;DHT22;32313;48.722;9.362;2022-08-03T02:35:03;14.60;99.90
46590;DHT22;32313;48.722;9.362;2022-08-03T02:37:34;14.60;99.90
46590;DHT22;32313;48.722;9.362;2022-08-03T02:40:02;14.60;99.90
46590;DHT22;32313;48.722;9.362;2022-08-03T02:42:32;14.50;99.90
46590;DHT22;32313;48.722;9.362;2022-08-03T02:45:00;14.50;99.90
46590;DHT22;32313;48.722;9.362;2022-08-03T02:47:28;14.40;99.90
46590;DHT22;32313;48.722;9.362;2022-08-03T02:49:56;14.40;99.90
46590;DHT22;32313;48.722;9.362;2022-08-03T02:52:27;14.40;99.90
46590;DHT22;32313;48.722;9.362;2022-08-03T02:54:57;14.40;99.90
46590;DHT22;32313;48.722;9.362;2022-08-03T02:57:27;14.30;99.90
46590;DHT22;32313;48.722;9.362;2022-08-03T02:59:55;14.30;99.90
46590;DHT22;32313;48.722;9.362;2022-08-03T03:02:22;14.30;99.90
46590;DHT22;32313;48.722;9.362;2022-08-03T03:04:50;14.20;99.90
46590;DHT22;32313;48.722;9.362;2022-08-03T03:07:17;14.20;99.90
46590;DHT22;32313;48.722;9.362;2022-08-03T03:09:43;14.20;99.90
46590;DHT22;32313;48.722;9.362;2022-08-03T03:12:11;14.20;99.90
46590;DHT22;32313;48.722;9.362;2022-08-03T03:14:38;14.20;99.90
46590;DHT22;32313;48.722;9.362;2022-08-03T03:17:09;14.20;99.90
46590;DHT22;32313;48.722;9.362;2022-08-03T03:19:36;14.20;99.90
46590;DHT22;32313;48.722;9.362;2022-08-03T03:22:03;14.20;99.90
46590;DHT22;32313;48.722;9.362;2022-08-03T03:24:31;14.20;99.90
46590;DHT22;32313;48.722;9.362;2022-08-03T03:26:58;14.10;99.90
46590;DHT22;32313;48.722;9.362;2022-08-03T03:29:24;14.10;99.90
46590;DHT22;32313;48.722;9.362;2022-08-03T03:31:50;14.20;99.90
46590;DHT22;32313;48.722;9.362;2022-08-03T03:34:17;14.20;99.90
46590;DHT22;32313;48.722;9.362;2022-08-03T03:36:43;14.20;99.90
46590;DHT22;32313;48.722;9.362;2022-08-03T03:39:09;14.30;99.90
46590;DHT22;32313;48.722;9.362;2022-08-03T03:41:35;14.20;99.90
46590;DHT22;32313;48.722;9.362;2022-08-03T03:44:01;14.30;99.90
46590;DHT22;32313;48.722;9.362;2022-08-03T03:46:27;14.30;99.90
46590;DHT22;32313;48.722;9.362;2022-08-03T03:48:53;14.20;99.90
46590;DHT22;32313;48.722;9.362;2022-08-03T03:51:19;14.20;99.90
46590;DHT22;32313;48.722;9.362;2022-08-03T03:56:24;14.20;99.90
46590;DHT22;32313;48.722;9.362;2022-08-03T03:58:50;14.20;99.90
46590;DHT22;32313;48.722;9.362;2022-08-03T04:01:16;14.20;99.90
46590;DHT22;32313;48.722;9.362;2022-08-03T04:03:48;14.20;99.90
46590;DHT22;32313;48.722;9.362;2022-08-03T04:06:14;14.10;99.90
46590;DHT22;32313;48.722;9.362;2022-08-03T04:09:00;14.10;99.90
46590;DHT22;32313;48.722;9.362;2022-08-03T04:11:52;14.10;99.90
46590;DHT22;32313;48.722;9.362;2022-08-03T04:14:46;14.10;99.90
46590;DHT22;32313;48.722;9.362;2022-08-03T04:17:14;14.20;99.90
46590;DHT22;32313;48.722;9.362;2022-08-03T04:19:48;14.10;99.90
46590;DHT22;32313;48.722;9.362;2022-08-03T04:22:21;14.20;99.90
46590;DHT22;32313;48.722;9.362;2022-08-03T04:24:51;14.20;99.90
46590;DHT22;32313;48.722;9.362;2022-08-03T04:27:25;14.30;99.90
46590;DHT22;32313;48.722;9.362;2022-08-03T04:29:53;14.20;99.90
46590;DHT22;32313;48.722;9.362;2022-08-03T04:32:20;14.30;99.90
46590;DHT22;32313;48.722;9.362;2022-08-03T04:34:50;14.30;99.90
46590;DHT22;32313;48.722;9.362;2022-08-03T04:37:39;14.30;99.90
46590;DHT22;32313;48.722;9.362;2022-08-03T04:40:11;14.30;99.90
46590;DHT22;32313;48.722;9.362;2022-08-03T04:42:37;14.30;99.90
46590;DHT22;32313;48.722;9.362;2022-08-03T04:45:06;14.30;99.90
46590;DHT22;32313;48.722;9.362;2022-08-03T04:47:33;14.40;99.90
46590;DHT22;32313;48.722;9.362;2022-08-03T04:50:00;14.40;99.90
46590;DHT22;32313;48.722;9.362;2022-08-03T04:52:26;14.50;99.90
46590;DHT22;32313;48.722;9.362;2022-08-03T04:54:52;14.50;99.90
46590;DHT22;32313;48.722;9.362;2022-08-03T04:57:18;14.60;99.90
46590;DHT22;32313;48.722;9.362;2022-08-03T04:59:44;14.60;99.90
46590;DHT22;32313;48.722;9.362;2022-08-03T05:02:09;14.70;99.90
46590;DHT22;32313;48.722;9.362;2022-08-03T05:04:35;14.80;99.90
46590;DHT22;32313;48.722;9.362;2022-08-03T05:07:03;14.90;99.90
46590;DHT22;32313;48.722;9.362;2022-08-03T05:09:29;15.00;99.90
46590;DHT22;32313;48.722;9.362;2022-08-03T05:11:54;15.10;99.90
46590;DHT22;32313;48.722;9.362;2022-08-03T05:14:20;15.10;99.90
46590;DHT22;32313;48.722;9.362;2022-08-03T05:16:48;15.20;99.90
46590;DHT22;32313;48.722;9.362;2022-08-03T05:19:14;15.30;99.90
46590;DHT22;32313;48.722;9.362;2022-08-03T05:21:39;15.40;99.90
46590;DHT22;32313;48.722;9.362;2022-08-03T05:24:05;15.50;99.90
46590;DHT22;32313;48.722;9.362;2022-08-03T05:26:31;15.50;99.90
46590;DHT22;32313;48.722;9.362;2022-08-03T05:28:59;15.60;99.90
46590;DHT22;32313;48.722;9.362;2022-08-03T05:31:25;15.70;99.90
46590;DHT22;32313;48.722;9.362;2022-08-03T05:33:50;15.90;99.90
46590;DHT22;32313;48.722;9.362;2022-08-03T05:36:16;16.00;99.90
46590;DHT22;32313;48.722;9.362;2022-08-03T05:38:42;16.10;99.90
46590;DHT22;32313;48.722;9.362;2022-08-03T05:41:08;16.20;99.90
46590;DHT22;32313;48.722;9.362;2022-08-03T05:43:33;16.20;99.90
46590;DHT22;32313;48.722;9.362;2022-08-03T05:46:00;16.30;99.90
46590;DHT22;32313;48.722;9.362;2022-08-03T05:48:26;16.50;99.90
46590;DHT22;32313;48.722;9.362;2022-08-03T05:50:52;16.60;99.90
46590;DHT22;32313;48.722;9.362;2022-08-03T05:53:18;16.80;99.90
46590;DHT22;32313;48.722;9.362;2022-08-03T05:55:44;16.90;99.90
46590;DHT22;32313;48.722;9.362;2022-08-03T05:58:10;17.00;99.90
46590;DHT22;32313;48.722;9.362;2022-08-03T06:00:35;17.10;99.90
46590;DHT22;32313;48.722;9.362;2022-08-03T06:03:01;17.20;99.90
46590;DHT22;32313;48.722;9.362;2022-08-03T06:05:27;17.30;99.90
46590;DHT22;32313;48.722;9.362;2022-08-03T06:07:53;17.30;99.90
46590;DHT22;32313;48.722;9.362;2022-08-03T06:10:19;17.50;99.90
46590;DHT22;32313;48.722;9.362;2022-08-03T06:12:45;17.70;99.90
46590;DHT22;32313;48.722;9.362;2022-08-03T06:15:14;17.80;99.90
46590;DHT22;32313;48.722;9.362;2022-08-03T06:17:47;18.00;99.90
46590;DHT22;32313;48.722;9.362;2022-08-03T06:20:16;18.20;99.90
46590;DHT22;32313;48.722;9.362;2022-08-03T06:22:42;18.30;99.90
46590;DHT22;32313;48.722;9.362;2022-08-03T06:25:08;18.50;99.90
46590;DHT22;32313;48.722;9.362;2022-08-03T06:27:34;18.70;99.90
46590;DHT22;32313;48.722;9.362;2022-08-03T06:30:06;18.80;99.90
46590;DHT22;32313;48.722;9.362;2022-08-03T06:32:33;18.90;99.90
46590;DHT22;32313;48.722;9.362;2022-08-03T06:34:59;19.00;99.90
46590;DHT22;32313;48.722;9.362;2022-08-03T06:37:25;19.20;99.90
46590;DHT22;32313;48.722;9.362;2022-08-03T06:39:52;19.30;99.90
46590;DHT22;32313;48.722;9.362;2022-08-03T06:42:18;19.40;99.90
46590;DHT22;32313;48.722;9.362;2022-08-03T06:44:44;19.60;99.90
46590;DHT22;32313;48.722;9.362;2022-08-03T06:47:10;19.80;99.90
46590;DHT22;32313;48.722;9.362;2022-08-03T06:49:36;19.90;99.90
46590;DHT22;32313;48.722;9.362;2022-08-03T06:52:02;20.00;99.90
46590;DHT22;32313;48.722;9.362;2022-08-03T06:54:28;20.20;99.90
46590;DHT22;32313;48.722;9.362;2022-08-03T06:56:54;20.40;99.90
46590;DHT22;32313;48.722;9.362;2022-08-03T06:59:20;20.60;99.90
46590;DHT22;32313;48.722;9.362;2022-08-03T07:01:52;20.80;99.90
46590;DHT22;32313;48.722;9.362;2022-08-03T07:04:17;21.00;99.90
46590;DHT22;32313;48.722;9.362;2022-08-03T07:06:43;21.30;99.90
46590;DHT22;32313;48.722;9.362;2022-08-03T07:09:09;21.60;99.90
46590;DHT22;32313;48.722;9.362;2022-08-03T07:11:34;22.20;99.90
46590;DHT22;32313;48.722;9.362;2022-08-03T07:14:00;23.10;99.90
46590;DHT22;32313;48.722;9.362;2022-08-03T07:16:26;24.00;99.90
46590;DHT22;32313;48.722;9.362;2022-08-03T07:18:52;24.70;99.90
46590;DHT22;32313;48.722;9.362;2022-08-03T07:21:17;25.00;99.90
46590;DHT22;32313;48.722;9.362;2022-08-03T07:23:43;25.40;99.90
46590;DHT22;32313;48.722;9.362;2022-08-03T07:26:09;25.90;99.90
46590;DHT22;32313;48.722;9.362;2022-08-03T07:28:36;26.50;99.90
46590;DHT22;32313;48.722;9.362;2022-08-03T07:31:02;26.90;99.90
46590;DHT22;32313;48.722;9.362;2022-08-03T07:33:27;27.20;99.90
46590;DHT22;32313;48.722;9.362;2022-08-03T07:35:53;27.30;99.90
46590;DHT22;32313;48.722;9.362;2022-08-03T07:38:19;27.20;99.90
46590;DHT22;32313;48.722;9.362;2022-08-03T07:40:45;27.40;99.90
46590;DHT22;32313;48.722;9.362;2022-08-03T07:43:10;27.80;99.90
46590;DHT22;32313;48.722;9.362;2022-08-03T07:45:36;27.90;99.90
46590;DHT22;32313;48.722;9.362;2022-08-03T07:48:02;28.10;99.90
46590;DHT22;32313;48.722;9.362;2022-08-03T07:50:28;28.30;99.90
46590;DHT22;32313;48.722;9.362;2022-08-03T07:52:54;28.10;99.90
46590;DHT22;32313;48.722;9.362;2022-08-03T07:55:22;28.20;99.90
46590;DHT22;32313;48.722;9.362;2022-08-03T07:58:11;28.20;99.90
46590;DHT22;32313;48.722;9.362;2022-08-03T08:00:41;28.30;99.90
46590;DHT22;32313;48.722;9.362;2022-08-03T08:03:07;28.70;99.90
46590;DHT22;32313;48.722;9.362;2022-08-03T08:05:33;29.10;99.90
46590;DHT22;32313;48.722;9.362;2022-08-03T08:08:00;29.60;99.90
46590;DHT22;32313;48.722;9.362;2022-08-03T08:10:26;30.00;99.90
46590;DHT22;32313;48.722;9.362;2022-08-03T08:12:53;30.20;99.90
46590;DHT22;32313;48.722;9.362;2022-08-03T08:15:19;30.60;99.90
46590;DHT22;32313;48.722;9.362;2022-08-03T08:17:48;30.90;99.90
46590;DHT22;32313;48.722;9.362;2022-08-03T08:20:18;31.20;99.90
46590;DHT22;32313;48.722;9.362;2022-08-03T08:22:44;31.40;99.90
46590;DHT22;32313;48.722;9.362;2022-08-03T08:25:15;31.20;99.90
46590;DHT22;32313;48.722;9.362;2022-08-03T08:27:46;31.00;99.90
46590;DHT22;32313;48.722;9.362;2022-08-03T08:30:14;31.00;99.90
46590;DHT22;32313;48.722;9.362;2022-08-03T08:32:44;31.00;99.90
46590;DHT22;32313;48.722;9.362;2022-08-03T08:35:10;30.70;99.90
46590;DHT22;32313;48.722;9.362;2022-08-03T08:37:37;30.70;99.90
46590;DHT22;32313;48.722;9.362;2022-08-03T08:40:05;31.10;99.90
46590;DHT22;32313;48.722;9.362;2022-08-03T08:42:31;31.40;99.90
46590;DHT22;32313;48.722;9.362;2022-08-03T08:44:59;31.70;99.90
46590;DHT22;32313;48.722;9.362;2022-08-03T08:47:28;32.10;97.50
46590;DHT22;32313;48.722;9.362;2022-08-03T08:49:54;32.40;97.30
46590;DHT22;32313;48.722;9.362;2022-08-03T08:52:24;32.60;98.70
46590;DHT22;32313;48.722;9.362;2022-08-03T08:54:58;33.00;98.10
46590;DHT22;32313;48.722;9.362;2022-08-03T08:57:28;33.10;96.70
46590;DHT22;32313;48.722;9.362;2022-08-03T08:59:55;32.90;96.50
46590;DHT22;32313;48.722;9.362;2022-08-03T09:02:24;32.60;93.80
46590;DHT22;32313;48.722;9.362;2022-08-03T09:04:51;32.90;95.50
46590;DHT22;32313;48.722;9.362;2022-08-03T09:07:17;33.20;94.30
46590;DHT22;32313;48.722;9.362;2022-08-03T09:09:43;33.50;93.30
46590;DHT22;32313;48.722;9.362;2022-08-03T09:12:10;33.80;90.60
46590;DHT22;32313;48.722;9.362;2022-08-03T09:14:36;33.90;86.50
46590;DHT22;32313;48.722;9.362;2022-08-03T09:17:02;33.60;83.40
46590;DHT22;32313;48.722;9.362;2022-08-03T09:19:30;33.70;85.10
46590;DHT22;32313;48.722;9.362;2022-08-03T09:22:15;34.40;83.00
46590;DHT22;32313;48.722;9.362;2022-08-03T09:24:56;34.80;85.10
46590;DHT22;32313;48.722;9.362;2022-08-03T09:27:23;35.30;79.50
46590;DHT22;32313;48.722;9.362;2022-08-03T09:29:50;35.60;81.20
46590;DHT22;32313;48.722;9.362;2022-08-03T09:32:23;35.80;76.50
46590;DHT22;32313;48.722;9.362;2022-08-03T09:34:51;36.10;77.80
46590;DHT22;32313;48.722;9.362;2022-08-03T09:37:18;36.60;77.10
46590;DHT22;32313;48.722;9.362;2022-08-03T09:39:45;36.70;73.50
46590;DHT22;32313;48.722;9.362;2022-08-03T09:42:16;36.30;72.90
46590;DHT22;32313;48.722;9.362;2022-08-03T09:44:48;36.10;72.00
46590;DHT22;32313;48.722;9.362;2022-08-03T09:50:01;36.50;69.50
46590;DHT22;32313;48.722;9.362;2022-08-03T09:52:35;36.90;70.20
46590;DHT22;32313;48.722;9.362;2022-08-03T09:55:08;37.20;68.60
46590;DHT22;32313;48.722;9.362;2022-08-03T09:57:34;37.10;65.40
46590;DHT22;32313;48.722;9.362;2022-08-03T10:00:09;37.20;62.90
46590;DHT22;32313;48.722;9.362;2022-08-03T10:02:42;37.10;58.30
46590;DHT22;32313;48.722;9.362;2022-08-03T10:05:10;36.30;60.70
46590;DHT22;32313;48.722;9.362;2022-08-03T10:07:49;36.00;60.20
46590;DHT22;32313;48.722;9.362;2022-08-03T10:10:16;35.80;61.70
46590;DHT22;32313;48.722;9.362;2022-08-03T10:12:43;35.90;64.00
46590;DHT22;32313;48.722;9.362;2022-08-03T10:15:09;36.30;63.10
46590;DHT22;32313;48.722;9.362;2022-08-03T10:17:36;36.50;60.70
46590;DHT22;32313;48.722;9.362;2022-08-03T10:20:04;36.70;60.80
46590;DHT22;32313;48.722;9.362;2022-08-03T10:22:35;36.90;55.80
46590;DHT22;32313;48.722;9.362;2022-08-03T10:25:11;37.10;57.70
46590;DHT22;32313;48.722;9.362;2022-08-03T10:27:41;37.20;53.80
46590;DHT22;32313;48.722;9.362;2022-08-03T10:30:12;37.20;53.50
46590;DHT22;32313;48.722;9.362;2022-08-03T10:32:51;37.20;53.30
46590;DHT22;32313;48.722;9.362;2022-08-03T10:35:20;36.90;54.40
46590;DHT22;32313;48.722;9.362;2022-08-03T10:37:59;37.10;55.40
46590;DHT22;32313;48.722;9.362;2022-08-03T10:40:30;37.60;52.70
46590;DHT22;32313;48.722;9.362;2022-08-03T10:43:07;38.00;54.50
46590;DHT22;32313;48.722;9.362;2022-08-03T10:45:40;38.00;49.70
46590;DHT22;32313;48.722;9.362;2022-08-03T10:48:07;38.00;50.50
46590;DHT22;32313;48.722;9.362;2022-08-03T10:50:34;38.00;50.70
46590;DHT22;32313;48.722;9.362;2022-08-03T10:53:05;38.10;52.40
46590;DHT22;32313;48.722;9.362;2022-08-03T10:58:47;38.30;53.00
46590;DHT22;32313;48.722;9.362;2022-08-03T11:01:14;38.00;52.20
46590;DHT22;32313;48.722;9.362;2022-08-03T11:06:26;38.10;52.40
46590;DHT22;32313;48.722;9.362;2022-08-03T11:11:40;38.40;53.70
46590;DHT22;32313;48.722;9.362;2022-08-03T11:14:17;38.60;53.00
46590;DHT22;32313;48.722;9.362;2022-08-03T11:17:05;38.40;53.40
46590;DHT22;32313;48.722;9.362;2022-08-03T11:19:44;38.40;51.30
46590;DHT22;32313;48.722;9.362;2022-08-03T11:22:11;38.00;52.20
46590;DHT22;32313;48.722;9.362;2022-08-03T11:40:53;38.00;49.80
46590;DHT22;32313;48.722;9.362;2022-08-03T11:45:57;37.20;52.40
46590;DHT22;32313;48.722;9.362;2022-08-03T11:48:26;37.30;54.90
46590;DHT22;32313;48.722;9.362;2022-08-03T11:50:52;37.80;51.40
46590;DHT22;32313;48.722;9.362;2022-08-03T11:53:18;38.40;52.80
46590;DHT22;32313;48.722;9.362;2022-08-03T11:55:45;38.60;51.40
46590;DHT22;32313;48.722;9.362;2022-08-03T11:58:19;38.10;49.40
46590;DHT22;32313;48.722;9.362;2022-08-03T12:00:45;38.10;51.30
46590;DHT22;32313;48.722;9.362;2022-08-03T12:03:12;38.20;51.30
46590;DHT22;32313;48.722;9.362;2022-08-03T12:05:49;38.00;50.10
46590;DHT22;32313;48.722;9.362;2022-08-03T12:08:38;37.70;52.70
46590;DHT22;32313;48.722;9.362;2022-08-03T12:11:04;37.40;53.20
46590;DHT22;32313;48.722;9.362;2022-08-03T12:13:46;37.10;53.60
46590;DHT22;32313;48.722;9.362;2022-08-03T12:16:20;37.20;51.80
46590;DHT22;32313;48.722;9.362;2022-08-03T12:19:01;37.00;50.50
46590;DHT22;32313;48.722;9.362;2022-08-03T12:21:28;36.90;52.90
46590;DHT22;32313;48.722;9.362;2022-08-03T12:23:58;36.90;52.90
46590;DHT22;32313;48.722;9.362;2022-08-03T12:26:25;37.10;52.80
46590;DHT22;32313;48.722;9.362;2022-08-03T12:28:51;37.10;49.70
46590;DHT22;32313;48.722;9.362;2022-08-03T12:31:17;37.10;52.10
46590;DHT22;32313;48.722;9.362;2022-08-03T12:34:03;37.90;48.90
46590;DHT22;32313;48.722;9.362;2022-08-03T12:36:31;38.50;50.00
46590;DHT22;32313;48.722;9.362;2022-08-03T12:39:08;38.70;48.80
46590;DHT22;32313;48.722;9.362;2022-08-03T12:41:38;38.80;46.80
46590;DHT22;32313;48.722;9.362;2022-08-03T12:44:06;39.00;48.40
46590;DHT22;32313;48.722;9.362;2022-08-03T12:46:40;39.00;48.60
46590;DHT22;32313;48.722;9.362;2022-08-03T12:49:09;39.20;48.40
46590;DHT22;32313;48.722;9.362;2022-08-03T12:51:40;39.50;49.70
46590;DHT22;32313;48.722;9.362;2022-08-03T12:54:22;39.80;50.10
46590;DHT22;32313;48.722;9.362;2022-08-03T12:59:33;39.60;47.30
46590;DHT22;32313;48.722;9.362;2022-08-03T13:01:59;39.30;45.40
46590;DHT22;32313;48.722;9.362;2022-08-03T13:04:32;38.40;47.60
46590;DHT22;32313;48.722;9.362;2022-08-03T13:07:05;38.10;49.10
46590;DHT22;32313;48.722;9.362;2022-08-03T13:09:49;38.40;49.70
46590;DHT22;32313;48.722;9.362;2022-08-03T13:12:18;38.80;46.80
46590;DHT22;32313;48.722;9.362;2022-08-03T13:14:47;39.00;48.70
46590;DHT22;32313;48.722;9.362;2022-08-03T13:17:13;39.30;47.30
46590;DHT22;32313;48.722;9.362;2022-08-03T13:19:41;39.40;48.70
46590;DHT22;32313;48.722;9.362;2022-08-03T13:22:14;39.60;47.40
46590;DHT22;32313;48.722;9.362;2022-08-03T13:24:41;39.20;44.70
46590;DHT22;32313;48.722;9.362;2022-08-03T13:27:08;39.00;46.30
46590;DHT22;32313;48.722;9.362;2022-08-03T13:29:34;38.60;46.70
46590;DHT22;32313;48.722;9.362;2022-08-03T13:32:03;38.40;47.40
46590;DHT22;32313;48.722;9.362;2022-08-03T13:34:30;38.10;46.60
46590;DHT22;32313;48.722;9.362;2022-08-03T13:36:55;38.00;48.60
46590;DHT22;32313;48.722;9.362;2022-08-03T13:39:21;38.40;46.70
46590;DHT22;32313;48.722;9.362;2022-08-03T13:41:47;38.30;46.20
46590;DHT22;32313;48.722;9.362;2022-08-03T13:44:13;38.60;46.80
46590;DHT22;32313;48.722;9.362;2022-08-03T13:46:39;39.00;45.70
46590;DHT22;32313;48.722;9.362;2022-08-03T13:49:05;38.70;45.30
46590;DHT22;32313;48.722;9.362;2022-08-03T13:51:31;38.50;43.90
46590;DHT22;32313;48.722;9.362;2022-08-03T13:53:58;38.50;44.80
46590;DHT22;32313;48.722;9.362;2022-08-03T13:56:27;38.70;43.40
46590;DHT22;32313;48.722;9.362;2022-08-03T13:58:54;38.60;45.10
46590;DHT22;32313;48.722;9.362;2022-08-03T14:01:19;38.80;46.00
46590;DHT22;32313;48.722;9.362;2022-08-03T14:03:45;38.70;46.20
46590;DHT22;32313;48.722;9.362;2022-08-03T14:06:13;38.70;45.80
46590;DHT22;32313;48.722;9.362;2022-08-03T14:08:39;38.80;45.50
46590;DHT22;32313;48.722;9.362;2022-08-03T14:11:06;38.80;44.60
46590;DHT22;32313;48.722;9.362;2022-08-03T14:13:32;38.50;43.70
46590;DHT22;32313;48.722;9.362;2022-08-03T14:15:58;38.70;44.30
46590;DHT22;32313;48.722;9.362;2022-08-03T14:18:23;38.60;44.40
46590;DHT22;32313;48.722;9.362;2022-08-03T14:20:49;38.40;44.60
46590;DHT22;32313;48.722;9.362;2022-08-03T14:23:15;38.30;45.90
46590;DHT22;32313;48.722;9.362;2022-08-03T14:25:42;38.60;45.30
46590;DHT22;32313;48.722;9.362;2022-08-03T14:28:08;38.70;46.30
46590;DHT22;32313;48.722;9.362;2022-08-03T14:30:34;39.10;44.20
46590;DHT22;32313;48.722;9.362;2022-08-03T14:33:00;39.40;44.30
46590;DHT22;32313;48.722;9.362;2022-08-03T14:35:26;39.70;44.60
46590;DHT22;32313;48.722;9.362;2022-08-03T14:37:52;39.70;43.90
46590;DHT22;32313;48.722;9.362;2022-08-03T14:40:18;39.70;44.70
46590;DHT22;32313;48.722;9.362;2022-08-03T14:42:45;39.60;41.40
46590;DHT22;32313;48.722;9.362;2022-08-03T14:45:12;39.10;42.60
46590;DHT22;32313;48.722;9.362;2022-08-03T14:47:38;39.10;43.20
46590;DHT22;32313;48.722;9.362;2022-08-03T14:50:06;39.10;42.60
46590;DHT22;32313;48.722;9.362;2022-08-03T14:52:32;39.20;41.60
46590;DHT22;32313;48.722;9.362;2022-08-03T14:54:58;39.10;43.30
46590;DHT22;32313;48.722;9.362;2022-08-03T14:57:25;39.20;43.30
46590;DHT22;32313;48.722;9.362;2022-08-03T14:59:50;39.40;42.50
46590;DHT22;32313;48.722;9.362;2022-08-03T15:02:16;39.40;41.20
46590;DHT22;32313;48.722;9.362;2022-08-03T15:04:42;39.10;41.20
46590;DHT22;32313;48.722;9.362;2022-08-03T15:07:08;38.70;42.20
46590;DHT22;32313;48.722;9.362;2022-08-03T15:09:33;38.60;41.20
46590;DHT22;32313;48.722;9.362;2022-08-03T15:12:00;38.30;42.10
46590;DHT22;32313;48.722;9.362;2022-08-03T15:14:27;38.20;42.50
46590;DHT22;32313;48.722;9.362;2022-08-03T15:16:55;38.00;42.50
46590;DHT22;32313;48.722;9.362;2022-08-03T15:19:21;37.80;42.40
46590;DHT22;32313;48.722;9.362;2022-08-03T15:21:47;37.70;43.90
46590;DHT22;32313;48.722;9.362;2022-08-03T15:24:12;38.20;42.80
46590;DHT22;32313;48.722;9.362;2022-08-03T15:26:38;38.20;41.30
46590;DHT22;32313;48.722;9.362;2022-08-03T15:29:04;38.20;41.50
46590;DHT22;32313;48.722;9.362;2022-08-03T15:31:30;38.30;41.10
46590;DHT22;32313;48.722;9.362;2022-08-03T15:33:55;38.30;42.70
46590;DHT22;32313;48.722;9.362;2022-08-03T15:36:21;38.50;44.30
46590;DHT22;32313;48.722;9.362;2022-08-03T15:38:50;38.70;42.00
46590;DHT22;32313;48.722;9.362;2022-08-03T15:41:16;38.50;40.10
46590;DHT22;32313;48.722;9.362;2022-08-03T15:43:45;38.40;42.50
46590;DHT22;32313;48.722;9.362;2022-08-03T15:46:12;38.40;42.70
46590;DHT22;32313;48.722;9.362;2022-08-03T15:48:39;38.30;41.30
46590;DHT22;32313;48.722;9.362;2022-08-03T15:51:06;38.30;42.00
46590;DHT22;32313;48.722;9.362;2022-08-03T15:53:32;38.10;43.80
46590;DHT22;32313;48.722;9.362;2022-08-03T15:55:59;38.40;41.80
46590;DHT22;32313;48.722;9.362;2022-08-03T15:58:25;38.00;42.30
46590;DHT22;32313;48.722;9.362;2022-08-03T16:00:56;37.50;42.60
46590;DHT22;32313;48.722;9.362;2022-08-03T16:03:23;37.80;43.80
46590;DHT22;32313;48.722;9.362;2022-08-03T16:05:48;37.90;44.00
46590;DHT22;32313;48.722;9.362;2022-08-03T16:08:14;37.90;42.80
46590;DHT22;32313;48.722;9.362;2022-08-03T16:10:40;37.90;42.90
46590;DHT22;32313;48.722;9.362;2022-08-03T16:13:06;37.90;42.20
46590;DHT22;32313;48.722;9.362;2022-08-03T16:15:34;37.50;43.20
46590;DHT22;32313;48.722;9.362;2022-08-03T16:18:00;37.20;43.40
46590;DHT22;32313;48.722;9.362;2022-08-03T16:20:25;37.20;41.60
46590;DHT22;32313;48.722;9.362;2022-08-03T16:22:51;37.30;43.00